Time;durP1;ratioP1;P1;durP2;ratioP2;P2;SDS_P1;SDS_P2;PMS_P1;PMS_P2;Temp;Humidity;BMP_temperature;BMP_pressure;BME280_temperature;BME280_humidity;BME280_pressure;Samples;Min_cycle;Max_cycle;Signal;HPM_P1;HPM_P2
2021/03/20 00:01:21;;;;;;;7.00;3.27;;;-0.80;99.90;;;;;;1868958;75;21445;-74
2021/03/20 00:03:47;;;;;;;3.55;2.70;;;-0.70;99.90;;;;;;1873563;75;21085;-74
2021/03/20 00:06:13;;;;;;;2.40;1.90;;;-0.70;99.90;;;;;;1856748;76;21099;-75
2021/03/20 00:08:39;;;;;;;3.42;2.70;;;-0.70;99.90;;;;;;1879741;76;21153;-72
2021/03/20 00:11:05;;;;;;;5.33;2.65;;;-0.80;99.90;;;;;;1879759;76;21056;-74
2021/03/20 00:13:31;;;;;;;5.12;2.83;;;-0.80;99.90;;;;;;1874331;75;21049;-74
2021/03/20 00:15:57;;;;;;;3.77;2.65;;;-0.80;99.90;;;;;;1879684;75;21165;-74
2021/03/20 00:18:24;;;;;;;5.10;3.05;;;-0.80;99.90;;;;;;1855809;76;21087;-74
2021/03/20 00:20:50;;;;;;;3.83;3.20;;;-0.70;99.90;;;;;;1863758;75;21108;-74
2021/03/20 00:23:16;;;;;;;3.15;2.37;;;-0.70;99.90;;;;;;1877106;75;21133;-74
2021/03/20 00:25:42;;;;;;;5.60;2.92;;;-0.70;99.90;;;;;;1871536;75;21198;-75
2021/03/20 00:28:08;;;;;;;5.20;3.02;;;-0.70;99.90;;;;;;1847760;76;21089;-75
2021/03/20 00:30:35;;;;;;;3.80;3.00;;;-0.80;99.90;;;;;;1853034;75;21153;-75
2021/03/20 00:33:01;;;;;;;7.12;3.52;;;-0.80;99.90;;;;;;1864661;76;21087;-74
2021/03/20 00:35:27;;;;;;;5.92;3.37;;;-0.90;99.90;;;;;;1879820;76;21083;-74
2021/03/20 00:37:53;;;;;;;5.97;3.20;;;-0.90;99.90;;;;;;1879793;76;21134;-75
2021/03/20 00:40:19;;;;;;;3.17;2.58;;;-0.80;99.90;;;;;;1854763;75;21066;-74
2021/03/20 00:42:45;;;;;;;8.30;3.22;;;-0.80;99.90;;;;;;1858973;76;21183;-73
2021/03/20 00:45:11;;;;;;;7.35;2.65;;;-0.90;99.90;;;;;;1878364;76;21076;-75
2021/03/20 00:47:37;;;;;;;3.67;3.10;;;-0.90;99.90;;;;;;1873703;75;21095;-76
2021/03/20 00:50:03;;;;;;;5.58;3.25;;;-1.00;99.90;;;;;;1871851;75;21163;-75
2021/03/20 00:52:30;;;;;;;4.25;3.15;;;-1.00;99.90;;;;;;1870978;76;21058;-74
2021/03/20 00:54:56;;;;;;;7.28;3.55;;;-0.80;99.90;;;;;;1856535;75;21577;-74
2021/03/20 00:57:22;;;;;;;4.03;2.95;;;-0.90;99.90;;;;;;1879785;75;21519;-75
2021/03/20 00:59:48;;;;;;;5.12;3.40;;;-1.00;99.90;;;;;;1879688;76;21484;-74
2021/03/20 01:02:14;;;;;;;6.22;3.60;;;-1.00;99.90;;;;;;1861768;76;21154;-76
2021/03/20 01:04:40;;;;;;;6.53;3.75;;;-1.00;99.90;;;;;;1867701;75;21092;-75
2021/03/20 01:07:06;;;;;;;6.20;3.25;;;-0.80;99.90;;;;;;1879739;76;21087;-75
2021/03/20 01:09:32;;;;;;;3.80;2.90;;;-0.90;99.90;;;;;;1849695;76;21270;-74
2021/03/20 01:11:59;;;;;;;6.55;3.22;;;-0.90;99.90;;;;;;1876010;75;21145;-75
2021/03/20 01:14:25;;;;;;;4.03;3.10;;;-0.90;99.90;;;;;;1860416;75;21056;-75
2021/03/20 01:16:51;;;;;;;5.28;3.15;;;-0.70;99.90;;;;;;1868303;75;21095;-75
2021/03/20 01:19:17;;;;;;;6.62;3.52;;;-0.70;99.90;;;;;;1873688;76;21083;-74
2021/03/20 01:21:43;;;;;;;4.87;3.40;;;-0.60;99.90;;;;;;1869038;75;21159;-75
2021/03/20 01:24:09;;;;;;;4.12;3.22;;;-0.50;99.90;;;;;;1871066;76;21136;-73
2021/03/20 01:26:35;;;;;;;5.28;3.17;;;-0.60;99.90;;;;;;1867024;75;21523;-73
2021/03/20 01:29:01;;;;;;;5.33;3.58;;;-0.70;99.90;;;;;;1880754;76;21464;-75
2021/03/20 01:31:28;;;;;;;5.15;3.08;;;-0.70;99.90;;;;;;1882617;76;21519;-75
2021/03/20 01:33:54;;;;;;;3.50;2.50;;;-0.70;99.90;;;;;;1854118;75;21215;-75
2021/03/20 01:36:20;;;;;;;4.35;2.83;;;-0.60;99.90;;;;;;1852191;76;21095;-74
2021/03/20 01:38:46;;;;;;;6.10;3.02;;;-0.50;99.90;;;;;;1862330;75;21088;-75
2021/03/20 01:41:12;;;;;;;4.90;3.02;;;-0.60;99.90;;;;;;1847616;75;21069;-76
2021/03/20 01:43:38;;;;;;;5.62;2.77;;;-0.60;99.90;;;;;;1847565;76;21271;-75
2021/03/20 01:46:04;;;;;;;2.87;2.50;;;-0.50;99.90;;;;;;1847802;75;21084;-75
2021/03/20 01:48:30;;;;;;;4.62;2.45;;;-0.50;99.90;;;;;;1852938;75;21178;-75
2021/03/20 01:50:57;;;;;;;5.10;2.77;;;-0.40;99.90;;;;;;1868154;76;21068;-75
2021/03/20 01:53:23;;;;;;;3.40;2.83;;;-0.50;99.90;;;;;;1862443;76;21139;-75
2021/03/20 01:55:49;;;;;;;3.60;2.58;;;-0.60;99.90;;;;;;1858155;75;21163;-74
2021/03/20 01:58:15;;;;;;;4.47;2.95;;;-0.70;99.90;;;;;;1878976;76;21149;-75
2021/03/20 02:00:41;;;;;;;4.72;2.85;;;-0.60;99.90;;;;;;1879775;76;21099;-77
2021/03/20 02:03:07;;;;;;;3.60;2.83;;;-0.60;99.90;;;;;;1855828;75;21053;-75
2021/03/20 02:05:33;;;;;;;3.45;2.52;;;-0.60;99.90;;;;;;1874390;76;21134;-75
2021/03/20 02:07:59;;;;;;;3.22;2.30;;;-0.60;99.90;;;;;;1857726;75;21161;-75
2021/03/20 02:10:26;;;;;;;4.30;2.62;;;-0.50;99.90;;;;;;1879866;75;21488;-75
2021/03/20 02:12:52;;;;;;;7.05;2.98;;;-0.40;99.90;;;;;;1879790;76;21581;-75
2021/03/20 02:15:18;;;;;;;3.17;2.52;;;-0.50;99.90;;;;;;1879716;75;21503;-74
2021/03/20 02:17:44;;;;;;;3.10;2.55;;;-0.40;99.90;;;;;;1874426;75;21166;-75
2021/03/20 02:20:11;;;;;;;4.05;2.70;;;-0.40;99.90;;;;;;1874337;76;21162;-74
2021/03/20 02:22:37;;;;;;;3.42;2.70;;;-0.20;99.90;;;;;;1868037;76;21515;-73
2021/03/20 02:25:03;;;;;;;4.53;2.85;;;-0.10;99.90;;;;;;1874320;75;21543;-74
2021/03/20 02:27:29;;;;;;;4.67;2.70;;;-0.20;99.90;;;;;;1879791;76;21593;-74
2021/03/20 02:29:55;;;;;;;3.58;2.70;;;-0.20;99.90;;;;;;1867431;75;21481;-74
2021/03/20 02:32:21;;;;;;;5.50;2.98;;;-0.10;99.90;;;;;;1853091;75;21512;-74
2021/03/20 02:34:47;;;;;;;8.20;3.22;;;-0.10;99.90;;;;;;1873107;76;21454;-74
2021/03/20 02:37:13;;;;;;;3.58;2.67;;;-0.10;99.90;;;;;;1875412;76;21492;-74
2021/03/20 02:39:40;;;;;;;5.17;2.58;;;0.00;99.90;;;;;;1853105;76;21524;-74
2021/03/20 02:42:06;;;;;;;2.70;2.45;;;0.10;99.90;;;;;;1858558;76;21092;-74
2021/03/20 02:44:32;;;;;;;4.42;2.47;;;0.10;99.90;;;;;;1854120;75;21053;-74
2021/03/20 02:46:58;;;;;;;4.70;2.70;;;0.10;99.90;;;;;;1853031;76;21166;-75
2021/03/20 02:49:24;;;;;;;4.85;2.83;;;0.20;99.90;;;;;;1877536;75;21088;-74
2021/03/20 02:51:51;;;;;;;3.98;2.85;;;0.20;99.90;;;;;;1864290;76;21103;-74
2021/03/20 02:54:17;;;;;;;4.17;2.47;;;0.20;99.90;;;;;;1879865;76;21056;-75
2021/03/20 02:56:43;;;;;;;2.47;2.02;;;0.20;99.90;;;;;;1870104;76;21139;-75
2021/03/20 02:59:09;;;;;;;8.10;2.80;;;0.30;99.90;;;;;;1853068;76;21178;-74
2021/03/20 03:01:37;;;;;;;4.42;2.70;;;0.40;99.90;;;;;;1864999;76;21093;-75
2021/03/20 03:04:03;;;;;;;3.70;2.50;;;0.50;99.90;;;;;;1847608;75;21155;-76
2021/03/20 03:06:29;;;;;;;3.02;2.67;;;0.50;99.90;;;;;;1881772;76;21087;-75
2021/03/20 03:08:55;;;;;;;8.50;2.67;;;0.50;99.90;;;;;;1875026;75;21099;-74
2021/03/20 03:11:21;;;;;;;3.62;2.58;;;0.50;99.90;;;;;;1852943;75;21058;-74
2021/03/20 03:13:49;;;;;;;3.27;2.70;;;0.50;99.90;;;;;;1874613;76;21065;-75
2021/03/20 03:16:15;;;;;;;5.83;2.85;;;0.40;99.90;;;;;;1864633;76;21086;-75
2021/03/20 03:18:41;;;;;;;3.33;2.70;;;0.50;99.90;;;;;;1882299;76;21161;-74
2021/03/20 03:21:07;;;;;;;3.98;2.87;;;0.60;99.90;;;;;;1882395;76;21089;-74
2021/03/20 03:23:34;;;;;;;5.95;2.98;;;0.50;99.90;;;;;;1874490;76;21147;-74
2021/03/20 03:26:00;;;;;;;3.52;2.47;;;0.60;99.90;;;;;;1872115;76;21084;-74
2021/03/20 03:28:26;;;;;;;3.33;2.37;;;0.50;99.90;;;;;;1865303;75;21163;-75
2021/03/20 03:30:52;;;;;;;3.62;2.72;;;0.50;99.90;;;;;;1863448;75;21595;-75
2021/03/20 03:33:18;;;;;;;5.28;2.80;;;0.50;99.90;;;;;;1860733;75;21441;-74
2021/03/20 03:35:44;;;;;;;5.15;3.30;;;0.60;99.90;;;;;;1861289;75;21508;-75
2021/03/20 03:38:10;;;;;;;4.42;2.62;;;0.60;99.90;;;;;;1856221;75;21159;-74
2021/03/20 03:40:36;;;;;;;3.95;2.98;;;0.60;99.90;;;;;;1879690;76;21161;-75
2021/03/20 03:43:03;;;;;;;4.95;2.90;;;0.60;99.90;;;;;;1873657;75;21095;-75
2021/03/20 03:45:29;;;;;;;2.90;2.65;;;0.50;99.90;;;;;;1879743;76;21068;-75
2021/03/20 03:47:55;;;;;;;3.52;2.90;;;0.50;99.90;;;;;;1879793;75;21150;-75
2021/03/20 03:50:21;;;;;;;4.80;3.08;;;0.50;99.90;;;;;;1864632;75;21101;-75
2021/03/20 03:52:47;;;;;;;4.65;2.58;;;0.50;99.90;;;;;;1847991;76;21061;-74
2021/03/20 03:55:13;;;;;;;5.00;3.30;;;0.50;99.90;;;;;;1874297;76;21182;-75
2021/03/20 03:57:39;;;;;;;4.67;3.20;;;0.50;99.90;;;;;;1868397;75;21096;-74
2021/03/20 04:00:05;;;;;;;4.17;3.27;;;0.60;99.90;;;;;;1870965;75;21112;-74
2021/03/20 04:02:32;;;;;;;5.83;3.37;;;0.50;99.90;;;;;;1864286;75;21099;-75
2021/03/20 04:04:58;;;;;;;6.50;2.98;;;0.60;99.90;;;;;;1853174;76;21578;-74
2021/03/20 04:07:24;;;;;;;4.33;2.92;;;0.50;99.90;;;;;;1866522;75;21551;-75
2021/03/20 04:09:50;;;;;;;4.40;3.60;;;0.50;99.90;;;;;;1874390;75;21468;-75
2021/03/20 04:12:16;;;;;;;5.33;3.12;;;0.50;99.90;;;;;;1870897;76;21096;-75
2021/03/20 04:14:42;;;;;;;5.40;2.92;;;0.50;99.90;;;;;;1852817;76;21154;-75
2021/03/20 04:17:08;;;;;;;5.47;2.77;;;0.50;99.90;;;;;;1859152;75;21088;-75
2021/03/20 04:19:34;;;;;;;3.72;2.60;;;0.50;99.90;;;;;;1854500;76;21181;-74
2021/03/20 04:22:00;;;;;;;4.42;3.15;;;0.50;99.90;;;;;;1864126;76;21194;-74
2021/03/20 04:24:27;;;;;;;4.40;3.05;;;0.50;99.90;;;;;;1871045;75;21093;-75
2021/03/20 04:26:53;;;;;;;3.47;2.52;;;0.50;99.90;;;;;;1858624;76;21080;-74
2021/03/20 04:29:19;;;;;;;3.87;2.87;;;0.40;99.90;;;;;;1848014;75;21063;-75
2021/03/20 04:31:45;;;;;;;4.75;3.05;;;0.40;99.90;;;;;;1875610;75;21150;-75
2021/03/20 04:34:11;;;;;;;3.22;2.65;;;0.40;99.90;;;;;;1879604;76;21095;-74
2021/03/20 04:36:37;;;;;;;3.17;2.52;;;0.20;99.90;;;;;;1862888;75;21104;-74
2021/03/20 04:39:03;;;;;;;4.80;3.27;;;0.30;99.90;;;;;;1854945;76;21562;-75
2021/03/20 04:41:29;;;;;;;3.47;2.80;;;0.40;99.90;;;;;;1879697;76;21567;-75
2021/03/20 04:43:56;;;;;;;4.08;3.02;;;0.20;99.90;;;;;;1879614;75;21535;-74
2021/03/20 04:46:22;;;;;;;3.30;2.58;;;0.10;99.90;;;;;;1863772;75;21172;-74
2021/03/20 04:48:48;;;;;;;8.05;3.52;;;0.00;99.90;;;;;;1847562;75;21088;-75
2021/03/20 04:51:14;;;;;;;4.03;2.98;;;0.00;99.90;;;;;;1857360;75;21197;-75
2021/03/20 04:53:40;;;;;;;2.83;2.15;;;-0.10;99.90;;;;;;1882334;76;21095;-74
2021/03/20 04:56:06;;;;;;;4.90;3.22;;;0.00;99.90;;;;;;1865568;75;21084;-74
2021/03/20 04:58:32;;;;;;;8.43;3.02;;;-0.10;99.90;;;;;;1869570;75;21052;-72
2021/03/20 05:00:58;;;;;;;3.20;2.52;;;-0.20;99.90;;;;;;1866496;76;21096;-75
2021/03/20 05:03:24;;;;;;;4.53;3.08;;;-0.20;99.90;;;;;;1847583;75;21138;-75
2021/03/20 05:05:51;;;;;;;5.62;3.45;;;-0.20;99.90;;;;;;1862353;76;21153;-74
2021/03/20 05:08:17;;;;;;;7.60;3.40;;;-0.30;99.90;;;;;;1861940;75;21092;-75
2021/03/20 05:10:43;;;;;;;6.50;2.95;;;-0.40;99.90;;;;;;1870471;75;21062;-75
2021/03/20 05:13:09;;;;;;;5.58;3.58;;;-0.30;99.90;;;;;;1852950;75;21092;-74
2021/03/20 05:15:35;;;;;;;4.40;2.83;;;-0.30;99.90;;;;;;1855534;75;21174;-73
2021/03/20 05:18:01;;;;;;;7.30;3.47;;;-0.50;99.90;;;;;;1867280;75;21096;-75
2021/03/20 05:20:27;;;;;;;4.37;3.12;;;-0.40;99.90;;;;;;1873119;75;21102;-73
2021/03/20 05:22:53;;;;;;;3.22;2.80;;;-0.50;99.90;;;;;;1882734;76;21515;-74
2021/03/20 05:25:20;;;;;;;7.60;3.83;;;-0.50;99.90;;;;;;1874573;76;21539;-74
2021/03/20 05:27:46;;;;;;;5.87;3.20;;;-0.50;99.90;;;;;;1877664;76;21519;-75
2021/03/20 05:30:12;;;;;;;3.65;3.08;;;-0.50;99.90;;;;;;1882320;76;21088;-75
2021/03/20 05:32:38;;;;;;;5.30;3.70;;;-0.50;99.90;;;;;;1854916;75;21061;-73
2021/03/20 05:35:04;;;;;;;6.08;3.30;;;-0.40;99.90;;;;;;1865692;75;21124;-73
2021/03/20 05:37:30;;;;;;;4.83;3.35;;;-0.50;99.90;;;;;;1869593;76;21087;-75
2021/03/20 05:39:56;;;;;;;4.95;3.52;;;-0.50;99.90;;;;;;1873991;75;21091;-75
2021/03/20 05:42:22;;;;;;;6.30;3.40;;;-0.50;99.90;;;;;;1862088;76;21080;-74
2021/03/20 05:44:49;;;;;;;7.10;3.62;;;-0.50;99.90;;;;;;1881934;76;21044;-74
2021/03/20 05:47:15;;;;;;;13.13;3.55;;;-0.40;99.90;;;;;;1873808;75;21092;-74
2021/03/20 05:49:41;;;;;;;5.95;2.85;;;-0.40;99.90;;;;;;1872638;75;21092;-73
2021/03/20 05:52:07;;;;;;;4.30;3.45;;;-0.40;99.90;;;;;;1847807;75;21155;-75
2021/03/20 05:54:33;;;;;;;7.00;3.75;;;-0.30;99.90;;;;;;1856431;76;21170;-74
2021/03/20 05:56:59;;;;;;;5.87;3.33;;;-0.40;99.90;;;;;;1879847;76;21059;-75
2021/03/20 05:59:25;;;;;;;4.67;3.47;;;-0.30;99.90;;;;;;1873720;76;21101;-75
2021/03/20 06:01:51;;;;;;;5.90;3.62;;;-0.30;99.90;;;;;;1879720;76;21099;-75
2021/03/20 06:04:17;;;;;;;5.95;2.98;;;-0.30;99.90;;;;;;1868360;75;21061;-75
2021/03/20 06:06:44;;;;;;;4.47;3.22;;;-0.30;99.90;;;;;;1862450;75;21158;-75
2021/03/20 06:09:10;;;;;;;10.60;4.00;;;-0.30;99.90;;;;;;1867866;75;21512;-75
2021/03/20 06:11:36;;;;;;;5.17;2.72;;;-0.20;99.90;;;;;;1867635;76;21601;-74
2021/03/20 06:14:02;;;;;;;9.33;3.72;;;-0.10;99.90;;;;;;1879590;76;21574;-75
2021/03/20 06:16:28;;;;;;;4.20;3.47;;;-0.10;99.90;;;;;;1856573;75;21442;-75
2021/03/20 06:18:54;;;;;;;4.25;3.22;;;0.00;99.90;;;;;;1879868;76;21127;-75
2021/03/20 06:21:20;;;;;;;11.00;3.70;;;0.00;99.90;;;;;;1867229;75;21083;-77
2021/03/20 06:23:46;;;;;;;7.15;4.03;;;0.00;99.90;;;;;;1858945;76;21093;-75
2021/03/20 06:26:13;;;;;;;7.95;4.10;;;0.10;99.90;;;;;;1867460;75;21088;-75
2021/03/20 06:28:39;;;;;;;6.67;3.30;;;0.20;99.90;;;;;;1873690;75;21080;-76
2021/03/20 06:31:05;;;;;;;4.92;3.20;;;0.40;99.90;;;;;;1847844;78;21054;-76
2021/03/20 06:33:31;;;;;;;3.72;2.60;;;0.30;99.90;;;;;;1876711;76;21061;-76
2021/03/20 06:35:57;;;;;;;2.92;2.50;;;0.40;99.90;;;;;;1858477;75;21489;-75
2021/03/20 06:38:23;;;;;;;3.08;2.42;;;0.50;99.90;;;;;;1859106;75;21530;-76
2021/03/20 06:40:49;;;;;;;3.25;2.72;;;0.60;99.90;;;;;;1869276;75;21510;-74
2021/03/20 06:43:15;;;;;;;6.12;2.98;;;0.60;99.90;;;;;;1879857;76;21405;-75
2021/03/20 06:45:42;;;;;;;3.83;2.72;;;0.70;99.90;;;;;;1879618;76;21079;-75
2021/03/20 06:48:08;;;;;;;3.85;2.55;;;0.80;99.90;;;;;;1863080;75;21165;-75
2021/03/20 06:50:34;;;;;;;5.45;2.58;;;0.90;99.90;;;;;;1879725;75;21139;-76
2021/03/20 06:53:00;;;;;;;4.87;2.70;;;0.90;99.90;;;;;;1850299;75;21058;-75
2021/03/20 06:55:26;;;;;;;3.77;2.50;;;0.90;99.90;;;;;;1861342;75;21062;-75
2021/03/20 06:57:52;;;;;;;3.90;2.08;;;1.00;99.90;;;;;;1868278;76;21173;-75
2021/03/20 07:00:18;;;;;;;2.98;2.02;;;1.10;99.90;;;;;;1880489;75;21501;-75
2021/03/20 07:02:44;;;;;;;3.90;2.30;;;1.30;99.90;;;;;;1873991;76;21480;-75
2021/03/20 07:05:11;;;;;;;3.02;1.98;;;1.30;99.90;;;;;;1879788;76;21500;-74
2021/03/20 07:07:37;;;;;;;2.35;2.08;;;1.40;99.90;;;;;;1882007;76;21091;-74
2021/03/20 07:10:03;;;;;;;1.77;1.67;;;1.20;99.90;;;;;;1879844;76;21150;-75
2021/03/20 07:12:30;;;;;;;1.87;1.77;;;1.00;99.90;;;;;;1870821;76;21062;-75
2021/03/20 07:14:56;;;;;;;2.60;2.00;;;1.20;99.90;;;;;;1847042;76;21064;-75
2021/03/20 07:17:26;;;;;;;2.67;1.60;;;1.20;99.90;;;;;;1879698;76;21509;-75
2021/03/20 07:19:52;;;;;;;2.62;1.72;;;1.00;99.90;;;;;;1868341;75;21068;-75
2021/03/20 07:22:18;;;;;;;1.67;1.57;;;1.20;99.90;;;;;;1867977;76;21094;-74
2021/03/20 07:24:44;;;;;;;2.25;1.50;;;1.10;99.90;;;;;;1879704;76;21123;-75
2021/03/20 07:27:10;;;;;;;1.65;1.50;;;1.00;99.90;;;;;;1879030;75;21103;-75
2021/03/20 07:29:36;;;;;;;3.95;1.95;;;1.10;99.90;;;;;;1851712;76;21586;-75
2021/03/20 07:32:02;;;;;;;2.47;1.80;;;1.30;99.90;;;;;;1836677;75;21576;-75
2021/03/20 07:34:29;;;;;;;1.20;1.10;;;1.40;99.90;;;;;;1836444;75;21493;-76
2021/03/20 07:36:55;;;;;;;3.62;1.57;;;1.50;99.90;;;;;;1860867;75;21137;-75
2021/03/20 07:39:21;;;;;;;4.80;1.57;;;1.70;99.90;;;;;;1873804;75;21088;-75
2021/03/20 07:41:47;;;;;;;2.55;1.50;;;1.30;99.90;;;;;;1862480;76;21093;-75
2021/03/20 07:44:13;;;;;;;2.30;1.60;;;1.30;99.90;;;;;;1872677;75;21149;-74
2021/03/20 07:46:39;;;;;;;4.25;1.40;;;1.60;99.90;;;;;;1871797;75;21167;-74
2021/03/20 07:49:06;;;;;;;1.60;1.50;;;1.60;99.90;;;;;;1871507;76;21103;-75
2021/03/20 07:51:32;;;;;;;1.50;1.32;;;1.40;99.90;;;;;;1860617;75;21175;-75
2021/03/20 07:53:58;;;;;;;2.87;1.10;;;1.50;99.90;;;;;;1866793;75;21100;-75
2021/03/20 07:56:24;;;;;;;2.92;1.82;;;1.50;99.90;;;;;;1860657;75;21199;-75
2021/03/20 07:58:51;;;;;;;2.58;1.70;;;1.50;99.90;;;;;;1868507;76;21095;-74
2021/03/20 08:01:17;;;;;;;1.30;1.20;;;1.50;99.90;;;;;;1859202;76;21159;-75
2021/03/20 08:03:43;;;;;;;1.62;1.52;;;1.70;99.90;;;;;;1836639;78;21057;-75
2021/03/20 08:06:09;;;;;;;1.55;1.45;;;1.60;99.90;;;;;;1851792;76;21094;-75
2021/03/20 08:08:35;;;;;;;2.22;1.72;;;1.60;99.90;;;;;;1875634;75;21065;-75
2021/03/20 08:11:01;;;;;;;6.05;1.42;;;1.60;99.90;;;;;;1867186;75;21592;-75
2021/03/20 08:13:27;;;;;;;3.45;1.40;;;1.60;99.90;;;;;;1836881;76;21470;-75
2021/03/20 08:15:56;;;;;;;3.42;1.52;;;1.50;99.90;;;;;;1879693;76;21585;-75
2021/03/20 08:18:21;;;;;;;1.52;1.42;;;1.40;99.90;;;;;;1847391;75;21095;-75
2021/03/20 08:20:47;;;;;;;1.95;1.80;;;1.60;99.90;;;;;;1842005;76;21172;-74
2021/03/20 08:23:14;;;;;;;1.35;1.25;;;1.70;99.90;;;;;;1868015;76;21618;-75
2021/03/20 08:25:40;;;;;;;1.87;1.22;;;1.60;99.90;;;;;;1866598;75;21488;-76
2021/03/20 08:28:10;;;;;;;1.40;1.30;;;1.70;99.90;;;;;;1836802;76;21513;-76
2021/03/20 08:30:34;;;;;;;1.95;1.50;;;2.20;99.90;;;;;;1868150;76;21107;-76
2021/03/20 08:33:00;;;;;;;1.57;1.00;;;2.60;99.90;;;;;;1882126;76;21025;-76
2021/03/20 08:35:26;;;;;;;1.60;1.02;;;2.70;99.90;;;;;;1864850;75;21497;-75
2021/03/20 08:37:52;;;;;;;2.17;1.10;;;2.50;99.90;;;;;;1848695;75;21591;-76
2021/03/20 08:40:18;;;;;;;1.65;1.32;;;2.70;99.90;;;;;;1848157;75;21563;-75
2021/03/20 08:42:45;;;;;;;4.33;1.77;;;2.60;99.90;;;;;;1879786;75;21154;-75
2021/03/20 08:45:11;;;;;;;3.02;1.55;;;2.30;99.90;;;;;;1863676;75;21093;-75
2021/03/20 08:47:37;;;;;;;3.80;1.75;;;2.00;99.90;;;;;;1856023;75;21151;-75
2021/03/20 08:50:03;;;;;;;1.00;1.00;;;2.10;99.90;;;;;;1864016;76;21056;-76
2021/03/20 08:52:29;;;;;;;2.33;1.50;;;2.50;99.90;;;;;;1871455;75;21154;-76
2021/03/20 08:54:55;;;;;;;1.10;1.05;;;2.60;99.90;;;;;;1864787;75;21094;-77
2021/03/20 08:57:21;;;;;;;1.12;1.02;;;2.60;99.90;;;;;;1906032;75;21518;-76
2021/03/20 08:59:47;;;;;;;1.85;1.07;;;2.20;99.90;;;;;;1869328;76;21591;-77
2021/03/20 09:02:14;;;;;;;1.17;1.07;;;2.10;99.90;;;;;;1909882;75;21546;-76
2021/03/20 09:04:40;;;;;;;1.20;1.10;;;2.30;99.90;;;;;;1869864;76;21087;-76
2021/03/20 09:07:06;;;;;;;0.90;0.88;;;2.80;99.90;;;;;;1909848;75;21161;-76
2021/03/20 09:09:32;;;;;;;1.00;0.78;;;3.00;99.90;;;;;;1867602;76;21102;-78
2021/03/20 09:11:58;;;;;;;1.10;0.95;;;2.90;99.90;;;;;;1908870;75;21157;-75
2021/03/20 09:14:25;;;;;;;0.68;0.68;;;3.40;99.90;;;;;;1861780;76;21058;-75
2021/03/20 09:16:51;;;;;;;1.67;1.00;;;3.40;99.90;;;;;;1876809;76;21519;-75
2021/03/20 09:19:17;;;;;;;3.45;1.00;;;3.40;99.90;;;;;;1873540;75;21056;-75
2021/03/20 09:21:43;;;;;;;2.70;0.98;;;3.40;99.90;;;;;;1848822;75;21154;-74
2021/03/20 09:24:09;;;;;;;1.80;1.02;;;3.10;99.90;;;;;;1862165;76;21076;-74
2021/03/20 09:26:35;;;;;;;1.30;1.20;;;3.30;99.90;;;;;;1870861;76;21239;-75
2021/03/20 09:29:03;;;;;;;0.62;0.62;;;3.50;99.90;;;;;;1880966;76;21052;-75
2021/03/20 09:31:29;;;;;;;0.95;0.80;;;3.70;99.90;;;;;;1874281;75;21106;-75
2021/03/20 09:33:56;;;;;;;1.62;1.22;;;3.50;99.90;;;;;;1871667;75;21172;-75
2021/03/20 09:36:22;;;;;;;2.58;1.07;;;4.00;99.90;;;;;;1847787;75;21093;-75
2021/03/20 09:38:48;;;;;;;1.17;0.85;;;4.50;99.90;;;;;;1857188;76;21472;-75
2021/03/20 09:41:14;;;;;;;1.62;1.12;;;4.20;99.90;;;;;;1867808;76;21510;-74
2021/03/20 09:43:40;;;;;;;2.98;1.00;;;4.10;99.30;;;;;;1876165;75;21508;-76
2021/03/20 09:46:06;;;;;;;0.75;0.68;;;4.40;98.90;;;;;;1872481;75;21161;-75
2021/03/20 09:48:32;;;;;;;1.20;0.62;;;4.40;99.90;;;;;;1879361;76;21084;-75
2021/03/20 09:50:58;;;;;;;0.98;0.90;;;4.80;99.50;;;;;;1848403;75;21085;-75
2021/03/20 09:53:25;;;;;;;3.30;0.82;;;4.60;97.60;;;;;;1847590;75;21129;-75
2021/03/20 09:55:51;;;;;;;1.10;0.70;;;5.00;98.70;;;;;;1850756;76;21069;-76
2021/03/20 09:58:17;;;;;;;1.00;0.70;;;5.30;98.50;;;;;;1879529;76;21083;-76
2021/03/20 10:00:43;;;;;;;1.02;0.93;;;5.40;97.80;;;;;;1870717;76;21101;-75
2021/03/20 10:03:09;;;;;;;1.67;0.82;;;4.90;97.20;;;;;;1853021;75;21093;-76
2021/03/20 10:05:35;;;;;;;1.75;1.07;;;5.20;97.10;;;;;;1856287;75;21140;-76
2021/03/20 10:08:01;;;;;;;1.80;0.90;;;5.80;95.80;;;;;;1867593;75;21505;-75
2021/03/20 10:10:28;;;;;;;0.80;0.80;;;5.40;95.80;;;;;;1858224;76;21203;-75
2021/03/20 10:12:54;;;;;;;3.55;0.98;;;4.90;95.60;;;;;;1852945;75;21154;-75
2021/03/20 10:15:20;;;;;;;1.75;1.00;;;4.70;96.00;;;;;;1847771;75;21166;-75
2021/03/20 10:17:46;;;;;;;3.77;0.80;;;5.60;95.30;;;;;;1847798;76;21061;-75
2021/03/20 10:20:12;;;;;;;7.42;0.82;;;5.50;93.80;;;;;;1863886;76;21083;-75
2021/03/20 10:22:38;;;;;;;3.35;0.78;;;5.30;92.70;;;;;;1871422;75;21095;-76
2021/03/20 10:25:04;;;;;;;0.55;0.55;;;4.90;93.50;;;;;;1858386;76;21165;-74
2021/03/20 10:27:32;;;;;;;0.60;0.60;;;4.60;92.80;;;;;;1873881;75;21177;-76
2021/03/20 10:29:58;;;;;;;0.85;0.68;;;4.90;94.10;;;;;;1879713;76;21112;-75
2021/03/20 10:32:24;;;;;;;0.62;0.60;;;5.60;93.10;;;;;;1860047;75;21167;-74
2021/03/20 10:34:50;;;;;;;0.75;0.72;;;6.20;90.50;;;;;;1847945;78;21076;-75
2021/03/20 10:37:16;;;;;;;1.20;0.90;;;6.40;85.60;;;;;;1878911;76;21087;-75
2021/03/20 10:39:43;;;;;;;1.27;1.00;;;5.60;83.50;;;;;;1880267;76;21157;-75
2021/03/20 10:42:10;;;;;;;1.45;0.82;;;5.40;87.90;;;;;;1874174;76;21111;-75
2021/03/20 10:44:36;;;;;;;1.35;0.90;;;5.90;87.80;;;;;;1870998;75;21155;-75
2021/03/20 10:47:02;;;;;;;2.05;0.98;;;5.50;91.20;;;;;;1860015;76;21076;-73
2021/03/20 10:49:28;;;;;;;1.57;1.15;;;5.50;90.30;;;;;;1865145;75;21057;-74
2021/03/20 10:51:54;;;;;;;5.85;0.80;;;5.60;87.90;;;;;;1847983;76;21146;-74
2021/03/20 10:54:20;;;;;;;2.58;0.75;;;5.60;87.50;;;;;;1869162;75;21161;-74
2021/03/20 10:56:46;;;;;;;0.90;0.72;;;6.20;86.50;;;;;;1878052;76;21100;-75
2021/03/20 10:59:12;;;;;;;1.57;0.80;;;5.60;84.60;;;;;;1877089;75;21103;-75
2021/03/20 11:01:39;;;;;;;2.15;0.90;;;5.80;85.50;;;;;;1881468;76;21480;-74
2021/03/20 11:04:05;;;;;;;1.10;0.88;;;7.30;87.50;;;;;;1865662;75;21526;-74
2021/03/20 11:06:31;;;;;;;0.50;0.50;;;6.90;82.60;;;;;;1858614;75;21575;-75
2021/03/20 11:08:57;;;;;;;3.33;0.80;;;6.70;82.00;;;;;;1874707;75;21565;-74
2021/03/20 11:11:23;;;;;;;0.72;0.72;;;6.80;80.90;;;;;;1880984;76;21166;-75
2021/03/20 11:13:49;;;;;;;2.10;0.78;;;7.60;75.80;;;;;;1859676;76;21044;-74
2021/03/20 11:16:15;;;;;;;0.85;0.70;;;6.50;78.30;;;;;;1879823;75;21052;-75
2021/03/20 11:18:41;;;;;;;1.52;1.07;;;7.40;80.60;;;;;;1866324;75;21076;-75
2021/03/20 11:21:09;;;;;;;2.33;1.02;;;7.60;77.90;;;;;;1851933;76;21050;-76
2021/03/20 11:23:35;;;;;;;1.27;0.70;;;8.00;77.30;;;;;;1866556;75;21147;-75
2021/03/20 11:26:01;;;;;;;0.88;0.85;;;8.00;75.00;;;;;;1875922;76;21041;-77
2021/03/20 11:28:27;;;;;;;2.45;0.82;;;7.70;76.30;;;;;;1857073;75;21096;-74
2021/03/20 11:30:55;;;;;;;0.57;0.57;;;7.10;73.10;;;;;;1879726;76;21095;-74
2021/03/20 11:33:21;;;;;;;2.87;0.60;;;7.30;78.70;;;;;;1879641;76;21092;-75
2021/03/20 11:35:47;;;;;;;1.95;1.10;;;8.10;74.30;;;;;;1879782;76;21083;-74
2021/03/20 11:38:13;;;;;;;1.37;0.90;;;7.20;70.50;;;;;;1879725;76;21088;-74
2021/03/20 11:40:39;;;;;;;0.62;0.62;;;7.40;70.90;;;;;;1879675;76;21095;-75
2021/03/20 11:43:05;;;;;;;1.15;0.70;;;7.40;70.60;;;;;;1856150;75;21069;-74
2021/03/20 11:45:31;;;;;;;1.20;1.10;;;8.40;71.50;;;;;;1857538;75;21170;-75
2021/03/20 11:47:58;;;;;;;2.27;0.95;;;7.90;65.40;;;;;;1862392;75;21088;-75
2021/03/20 11:50:24;;;;;;;0.80;0.80;;;7.70;69.10;;;;;;1879704;76;21149;-75
2021/03/20 11:52:50;;;;;;;0.50;0.50;;;7.80;69.50;;;;;;1868269;75;21149;-75
2021/03/20 11:55:16;;;;;;;2.10;1.05;;;7.80;69.50;;;;;;1866389;75;21150;-75
2021/03/20 11:57:42;;;;;;;2.65;1.02;;;8.00;67.90;;;;;;1847810;78;21085;-75
2021/03/20 12:00:08;;;;;;;0.62;0.60;;;8.10;70.30;;;;;;1878047;76;21084;-75
2021/03/20 12:02:35;;;;;;;1.30;0.80;;;8.50;65.60;;;;;;1869714;75;21101;-76
2021/03/20 12:05:01;;;;;;;1.87;0.90;;;8.30;65.30;;;;;;1859403;76;21169;-75
2021/03/20 12:07:30;;;;;;;1.00;0.90;;;8.50;66.20;;;;;;1864854;75;21056;-75
2021/03/20 12:09:56;;;;;;;4.85;1.00;;;9.60;62.50;;;;;;1864482;76;21583;-76
2021/03/20 12:12:22;;;;;;;3.17;1.07;;;9.80;60.10;;;;;;1848020;76;21626;-76
2021/03/20 12:14:48;;;;;;;2.02;1.02;;;9.50;58.90;;;;;;1873652;76;21535;-76
2021/03/20 12:17:14;;;;;;;1.77;1.10;;;7.60;62.90;;;;;;1873245;76;21080;-76
2021/03/20 12:19:40;;;;;;;3.83;1.07;;;6.80;67.20;;;;;;1862569;76;21080;-76
2021/03/20 12:22:07;;;;;;;1.00;0.90;;;7.60;67.90;;;;;;1879739;76;21083;-76
2021/03/20 12:24:33;;;;;;;1.20;0.93;;;8.40;66.20;;;;;;1871821;76;21089;-76
2021/03/20 12:27:01;;;;;;;2.47;1.60;;;9.00;63.90;;;;;;1852861;75;21148;-76
2021/03/20 12:29:30;;;;;;;2.35;1.00;;;8.80;65.60;;;;;;1902422;74;21177;-76
2021/03/20 12:31:55;;;;;;;0.98;0.65;;;9.30;62.90;;;;;;1896455;74;21104;-75
2021/03/20 12:34:22;;;;;;;1.20;0.80;;;9.20;58.00;;;;;;1892910;74;21143;-76
2021/03/20 12:36:48;;;;;;;1.65;0.85;;;8.90;56.70;;;;;;1905466;74;21050;-74
2021/03/20 12:39:14;;;;;;;2.50;0.95;;;8.10;58.30;;;;;;1905250;74;21058;-75
2021/03/20 12:41:40;;;;;;;4.53;1.15;;;8.50;60.20;;;;;;1914034;74;21151;-76
2021/03/20 12:44:06;;;;;;;0.90;0.90;;;8.10;64.50;;;;;;1899350;74;21494;-76
2021/03/20 12:46:33;;;;;;;1.12;0.85;;;8.30;61.40;;;;;;1894506;74;21080;-75